Time;durP1;ratioP1;P1;durP2;ratioP2;P2;SDS_P1;SDS_P2;PMS_P1;PMS_P2;Temp;Humidity;BMP_temperature;BMP_pressure;BME280_temperature;BME280_humidity;BME280_pressure;Samples;Min_cycle;Max_cycle;Signal;HPM_P1;HPM_P2
2021/11/02 00:00:09;;;;;;;12.83;4.07;;;8.00;98.40;;;;;;5052402;28;20036;-77
2021/11/02 00:02:35;;;;;;;8.90;3.57;;;8.00;98.40;;;;;;5052524;28;20029;-76
2021/11/02 00:05:01;;;;;;;11.43;3.93;;;8.00;98.40;;;;;;5054031;28;20022;-76
2021/11/02 00:07:26;;;;;;;8.70;3.40;;;8.00;98.40;;;;;;5052341;28;20083;-76
2021/11/02 00:09:54;;;;;;;9.40;3.53;;;8.10;98.40;;;;;;5053807;28;20021;-76
2021/11/02 00:12:28;;;;;;;8.03;3.57;;;7.90;98.40;;;;;;5052443;28;20033;-76
2021/11/02 00:14:54;;;;;;;8.20;3.40;;;7.90;98.50;;;;;;5036035;28;20542;-76
2021/11/02 00:17:24;;;;;;;7.87;3.57;;;8.00;98.50;;;;;;5052770;28;20052;-76
2021/11/02 00:19:53;;;;;;;10.47;3.53;;;7.90;98.40;;;;;;5036263;28;20033;-76
2021/11/02 00:22:21;;;;;;;8.50;3.43;;;7.90;98.40;;;;;;5036038;28;20430;-76
2021/11/02 00:27:23;;;;;;;8.17;3.13;;;7.90;98.40;;;;;;5052274;28;20041;-76
2021/11/02 00:29:48;;;;;;;7.73;3.70;;;7.80;98.40;;;;;;5052085;28;20025;-77
2021/11/02 00:32:15;;;;;;;9.30;3.70;;;7.80;98.50;;;;;;5052015;28;20520;-76
2021/11/02 00:34:41;;;;;;;10.30;3.80;;;7.80;98.50;;;;;;5052153;28;20038;-77
2021/11/02 00:37:06;;;;;;;7.90;3.53;;;7.80;98.80;;;;;;5052648;28;20025;-76
2021/11/02 00:39:33;;;;;;;8.70;3.53;;;7.70;98.50;;;;;;5052048;28;20451;-76
2021/11/02 00:41:59;;;;;;;9.33;3.93;;;7.80;98.60;;;;;;5053128;28;20036;-76
2021/11/02 00:44:25;;;;;;;9.23;3.33;;;7.80;98.60;;;;;;5052433;28;20025;-76
2021/11/02 00:46:51;;;;;;;12.47;4.37;;;7.90;98.60;;;;;;5053188;28;20503;-75
2021/11/02 00:49:18;;;;;;;7.43;3.80;;;7.70;98.60;;;;;;5052173;28;20453;-76
2021/11/02 00:51:48;;;;;;;7.77;4.07;;;7.70;98.60;;;;;;5052057;28;20542;-76
2021/11/02 00:54:14;;;;;;;8.43;3.33;;;7.70;98.60;;;;;;5052956;28;20033;-76
2021/11/02 00:56:41;;;;;;;8.97;3.93;;;7.70;98.60;;;;;;5051715;28;20039;-76
2021/11/02 00:59:08;;;;;;;8.73;4.00;;;7.70;98.90;;;;;;5035204;28;20039;-76
2021/11/02 01:01:33;;;;;;;12.27;4.93;;;7.70;98.60;;;;;;5051826;28;20029;-75
2021/11/02 01:04:04;;;;;;;12.13;3.57;;;7.60;98.60;;;;;;5035252;28;20492;-76
2021/11/02 01:06:29;;;;;;;10.23;3.37;;;7.70;98.70;;;;;;5051583;28;20060;-76
2021/11/02 01:08:55;;;;;;;10.20;4.00;;;7.60;98.70;;;;;;5037054;28;20060;-76
2021/11/02 01:11:21;;;;;;;8.37;3.93;;;7.60;98.70;;;;;;5055815;28;20040;-76
2021/11/02 01:13:46;;;;;;;9.13;4.20;;;7.60;98.70;;;;;;5055590;28;20017;-76
2021/11/02 01:16:12;;;;;;;9.27;3.80;;;7.60;98.70;;;;;;5055878;28;20480;-76
2021/11/02 01:18:38;;;;;;;11.53;3.53;;;7.60;98.70;;;;;;5055624;28;20033;-76
2021/11/02 01:21:03;;;;;;;9.20;3.53;;;7.50;98.70;;;;;;5056005;28;20037;-76
2021/11/02 01:23:32;;;;;;;12.80;3.97;;;7.50;98.70;;;;;;5039261;28;20021;-75
2021/11/02 01:25:58;;;;;;;9.97;3.80;;;7.50;98.70;;;;;;5039462;28;20119;-76
2021/11/02 01:28:24;;;;;;;9.57;3.77;;;7.50;98.80;;;;;;5056310;28;20052;-76
2021/11/02 01:30:50;;;;;;;10.17;4.07;;;7.50;98.80;;;;;;5055320;28;20029;-75
2021/11/02 01:33:16;;;;;;;9.33;4.03;;;7.50;98.80;;;;;;5056487;28;20035;-76
2021/11/02 01:35:41;;;;;;;11.13;3.77;;;7.50;98.70;;;;;;5055263;28;20025;-76
2021/11/02 01:38:08;;;;;;;11.70;4.30;;;7.40;98.70;;;;;;5038292;28;20453;-76
2021/11/02 01:40:34;;;;;;;10.03;3.60;;;7.40;98.70;;;;;;5055263;28;20033;-76
2021/11/02 01:42:59;;;;;;;11.00;4.27;;;7.40;98.80;;;;;;5056197;28;20029;-76
2021/11/02 01:45:27;;;;;;;11.10;4.53;;;7.40;98.80;;;;;;5056184;28;20059;-76
2021/11/02 01:47:53;;;;;;;10.70;4.60;;;7.40;98.80;;;;;;5038473;28;20481;-76
2021/11/02 01:50:19;;;;;;;15.23;4.47;;;7.40;98.80;;;;;;5055225;28;20051;-76
2021/11/02 01:52:45;;;;;;;16.33;4.90;;;7.40;98.80;;;;;;5056058;28;20057;-76
2021/11/02 01:55:12;;;;;;;11.13;4.80;;;7.30;98.80;;;;;;5056185;28;20099;-76
2021/11/02 01:57:39;;;;;;;10.60;4.60;;;7.30;98.80;;;;;;5055195;28;20033;-76
2021/11/02 02:00:08;;;;;;;11.70;4.13;;;7.30;98.90;;;;;;5054669;28;20082;-76
2021/11/02 02:02:45;;;;;;;10.93;4.30;;;7.30;98.90;;;;;;5054731;28;20404;-76
2021/11/02 02:05:21;;;;;;;10.63;4.17;;;7.30;98.90;;;;;;5056036;28;20430;-76
2021/11/02 02:08:03;;;;;;;12.23;4.17;;;7.30;98.90;;;;;;5056274;28;20017;-76
2021/11/02 02:10:47;;;;;;;11.63;3.80;;;7.30;98.90;;;;;;5054665;28;20020;-76
2021/11/02 02:13:16;;;;;;;8.73;3.92;;;7.30;98.90;;;;;;5054387;28;20025;-76
2021/11/02 02:15:42;;;;;;;11.87;4.10;;;7.30;98.90;;;;;;5055780;28;20040;-76
2021/11/02 02:18:25;;;;;;;11.20;4.33;;;7.30;99.00;;;;;;5054339;28;20565;-78
2021/11/02 02:21:11;;;;;;;9.95;4.35;;;7.20;98.90;;;;;;5053770;28;20021;-78
2021/11/02 02:23:56;;;;;;;13.03;4.93;;;7.20;99.00;;;;;;5055428;28;20021;-77
2021/11/02 02:26:33;;;;;;;11.02;4.05;;;7.20;99.00;;;;;;5054260;28;20469;-78
2021/11/02 02:29:03;;;;;;;11.63;3.70;;;7.20;99.00;;;;;;5054116;28;20029;-78
2021/11/02 02:31:32;;;;;;;8.13;3.93;;;7.20;99.00;;;;;;5055332;28;20021;-78
2021/11/02 02:33:59;;;;;;;14.47;4.40;;;7.20;99.10;;;;;;5054091;28;20013;-78
2021/11/02 02:36:29;;;;;;;12.00;4.40;;;7.10;99.00;;;;;;5055188;28;20104;-77
2021/11/02 02:38:58;;;;;;;8.93;3.37;;;7.20;99.10;;;;;;5054269;28;20017;-78
2021/11/02 02:41:24;;;;;;;18.13;4.70;;;7.20;99.10;;;;;;5055416;28;20488;-78
2021/11/02 02:43:51;;;;;;;13.97;4.30;;;7.20;99.10;;;;;;5054968;28;20444;-78
2021/11/02 02:46:18;;;;;;;10.43;3.83;;;7.00;99.20;;;;;;5053874;28;20040;-76
2021/11/02 02:48:44;;;;;;;9.87;3.80;;;7.10;99.20;;;;;;5037428;28;20052;-76
2021/11/02 02:51:12;;;;;;;11.40;3.70;;;7.10;99.20;;;;;;5054272;28;20088;-76
2021/11/02 02:53:42;;;;;;;12.60;4.57;;;7.00;99.20;;;;;;5054977;28;20028;-77
2021/11/02 02:56:09;;;;;;;11.77;4.47;;;7.20;99.20;;;;;;5053539;28;20021;-78
2021/11/02 02:58:39;;;;;;;10.53;4.20;;;7.10;99.20;;;;;;5054676;28;20025;-77
2021/11/02 03:01:06;;;;;;;11.43;4.13;;;7.10;99.20;;;;;;5053361;28;20051;-78
2021/11/02 03:03:32;;;;;;;12.30;3.90;;;7.10;99.30;;;;;;5037025;28;20029;-76
2021/11/02 03:06:03;;;;;;;12.20;4.27;;;7.10;99.30;;;;;;5053553;28;20055;-77
2021/11/02 03:08:29;;;;;;;7.77;3.47;;;7.20;99.30;;;;;;5037114;28;20059;-75
2021/11/02 03:10:55;;;;;;;10.13;3.90;;;7.20;99.30;;;;;;5054723;28;20036;-77
2021/11/02 03:13:24;;;;;;;10.10;3.63;;;7.10;99.30;;;;;;5053667;28;20021;-78
2021/11/02 03:16:03;;;;;;;13.30;3.77;;;7.10;99.30;;;;;;5054792;28;20034;-78
2021/11/02 04:30:10;;;;;;;8.00;3.60;;;6.90;99.40;;;;;;5053432;28;20610;-78
2021/11/02 04:43:19;;;;;;;;;;;6.90;99.50;;;;;;5055454;28;20086;-77
2021/11/02 05:10:37;;;;;;;11.77;4.27;;;6.90;99.80;;;;;;5057234;28;20120;-76
2021/11/02 05:52:17;;;;;;;9.40;3.90;;;7.00;99.80;;;;;;5052374;28;20034;-78
2021/11/02 05:59:57;;;;;;;8.77;3.58;;;7.00;99.80;;;;;;5054977;28;20095;-77
2021/11/02 06:02:41;;;;;;;6.83;3.53;;;7.00;99.80;;;;;;5055798;28;20032;-77
2021/11/02 06:10:21;;;;;;;10.67;4.00;;;7.00;99.80;;;;;;5055484;28;20063;-78
2021/11/02 06:29:35;;;;;;;5.93;2.53;;;7.00;99.80;;;;;;5054929;28;20036;-78
2021/11/02 06:34:43;;;;;;;10.10;3.97;;;7.00;99.90;;;;;;5055226;28;20029;-78
2021/11/02 06:37:32;;;;;;;7.43;3.20;;;7.00;99.90;;;;;;5039515;28;20025;-78
2021/11/02 06:48:04;;;;;;;7.80;2.80;;;7.00;99.90;;;;;;5051929;28;20072;-78
2021/11/02 06:51:07;;;;;;;7.53;3.03;;;7.10;99.90;;;;;;5042909;28;20024;-78
2021/11/02 07:18:23;;;;;;;;;;;7.30;99.90;;;;;;5034279;28;20128;-77
2021/11/02 07:20:56;;;;;;;9.53;3.33;;;7.30;99.90;;;;;;5048619;28;19958;-78
2021/11/02 07:23:30;;;;;;;6.38;3.05;;;7.20;99.90;;;;;;5016817;28;20129;-78
2021/11/02 07:26:39;;;;;;;9.80;3.20;;;7.30;99.90;;;;;;5032428;28;20029;-76
2021/11/02 08:45:14;;;;;;;11.05;4.82;;;8.80;99.40;;;;;;5052569;28;20036;-75
2021/11/02 08:47:42;;;;;;;8.83;3.73;;;8.80;99.30;;;;;;5051531;28;20021;-75
2021/11/02 08:50:12;;;;;;;7.07;3.63;;;8.90;99.30;;;;;;5051611;28;20025;-73
2021/11/02 08:52:39;;;;;;;8.93;3.73;;;8.90;99.20;;;;;;5051795;28;20393;-75
2021/11/02 08:55:09;;;;;;;8.20;3.93;;;8.80;99.10;;;;;;5051549;28;20009;-75
2021/11/02 08:57:35;;;;;;;9.67;3.87;;;8.90;99.00;;;;;;5034969;28;20032;-76
2021/11/02 09:00:02;;;;;;;8.23;3.87;;;8.90;99.10;;;;;;5032148;28;20033;-75
2021/11/02 09:02:29;;;;;;;8.40;4.00;;;9.00;99.10;;;;;;5051550;28;20500;-74
2021/11/02 09:05:08;;;;;;;6.87;3.20;;;9.00;99.00;;;;;;5051494;28;20040;-74
2021/11/02 09:07:34;;;;;;;9.03;3.70;;;9.00;99.00;;;;;;5052939;28;20021;-75
2021/11/02 09:10:01;;;;;;;7.67;3.80;;;9.00;98.80;;;;;;5053230;28;20022;-74
2021/11/02 09:12:30;;;;;;;9.97;3.70;;;9.00;98.90;;;;;;5053154;28;20036;-74
2021/11/02 09:14:57;;;;;;;8.13;4.30;;;9.10;98.90;;;;;;5052804;28;20029;-75
2021/11/02 09:17:26;;;;;;;10.60;3.70;;;9.10;98.80;;;;;;5052781;28;20352;-75
2021/11/02 09:19:52;;;;;;;10.00;3.60;;;9.10;98.80;;;;;;5052773;28;20083;-75
2021/11/02 09:22:18;;;;;;;7.63;3.27;;;9.10;98.70;;;;;;5052959;28;20591;-75
2021/11/02 09:24:45;;;;;;;10.10;3.73;;;9.10;98.60;;;;;;5051491;28;20021;-74
2021/11/02 09:27:13;;;;;;;6.73;3.87;;;9.10;98.60;;;;;;5052424;28;20115;-75
2021/11/02 09:29:39;;;;;;;6.73;3.60;;;9.20;98.70;;;;;;5053829;28;20104;-76
2021/11/02 09:32:08;;;;;;;7.37;4.03;;;9.20;98.50;;;;;;5056621;28;20103;-74
2021/11/02 09:34:35;;;;;;;7.07;4.07;;;9.20;98.70;;;;;;5055363;28;20049;-77
2021/11/02 09:37:13;;;;;;;6.77;2.90;;;9.20;98.50;;;;;;5056316;28;20086;-73
2021/11/02 09:39:42;;;;;;;6.57;3.90;;;9.20;98.60;;;;;;5056802;28;20029;-77
2021/11/02 09:42:42;;;;;;;7.77;4.03;;;9.30;98.50;;;;;;5056482;28;20025;-78
2021/11/02 09:45:45;;;;;;;7.07;3.43;;;9.30;98.60;;;;;;5055051;28;20040;-76
2021/11/02 09:48:33;;;;;;;10.40;3.97;;;9.30;98.50;;;;;;5056201;28;20032;-78
2021/11/02 09:51:36;;;;;;;8.37;3.70;;;9.30;98.40;;;;;;5056276;28;20021;-77
2021/11/02 09:54:17;;;;;;;7.90;4.00;;;9.40;98.40;;;;;;5055180;28;20021;-76
2021/11/02 09:56:45;;;;;;;13.60;4.93;;;9.40;98.40;;;;;;5053578;28;20417;-78
2021/11/02 09:59:45;;;;;;;7.13;3.90;;;9.40;98.40;;;;;;5053473;28;20029;-79
2021/11/02 10:02:58;;;;;;;11.33;4.77;;;9.40;98.30;;;;;;5053444;28;20496;-77
2021/11/02 10:05:37;;;;;;;9.53;4.63;;;9.40;98.40;;;;;;5043236;28;20043;-76
2021/11/02 10:08:29;;;;;;;8.13;4.70;;;9.40;98.30;;;;;;5054206;28;20366;-77
2021/11/02 10:11:32;;;;;;;10.40;4.63;;;9.50;98.40;;;;;;5054224;28;20025;-76
2021/11/02 10:14:19;;;;;;;9.27;4.60;;;9.50;98.40;;;;;;5053950;28;20116;-80
2021/11/02 10:17:01;;;;;;;8.10;3.60;;;9.60;98.50;;;;;;5035663;28;20037;-76
2021/11/02 10:20:06;;;;;;;6.03;3.90;;;9.60;98.50;;;;;;5050693;28;20037;-76
2021/11/02 10:23:16;;;;;;;8.55;4.65;;;9.60;98.50;;;;;;5046625;28;20251;-73
2021/11/02 10:25:51;;;;;;;7.87;4.20;;;9.70;98.60;;;;;;5052610;28;20017;-77
2021/11/02 10:28:54;;;;;;;7.67;4.37;;;9.70;98.60;;;;;;5042614;28;20090;-76
2021/11/02 10:31:35;;;;;;;8.57;5.07;;;9.80;98.60;;;;;;5068033;28;20033;-76
2021/11/02 10:34:18;;;;;;;9.00;5.07;;;9.80;98.70;;;;;;5034096;28;20027;-77
2021/11/02 10:36:55;;;;;;;7.37;4.40;;;9.90;98.70;;;;;;5035488;28;20056;-76
2021/11/02 10:39:35;;;;;;;7.93;4.33;;;10.00;98.90;;;;;;5037649;28;20025;-77
2021/11/02 10:42:28;;;;;;;7.90;4.73;;;10.20;99.00;;;;;;5053745;28;20043;-77
2021/11/02 10:45:01;;;;;;;7.50;3.77;;;10.30;99.10;;;;;;5055186;28;20173;-76
2021/11/02 10:47:39;;;;;;;9.73;4.80;;;10.40;99.20;;;;;;5055114;28;20068;-77
2021/11/02 10:50:11;;;;;;;9.53;5.20;;;10.40;98.80;;;;;;5054906;28;20107;-77
2021/11/02 10:52:38;;;;;;;7.57;4.63;;;10.50;98.90;;;;;;5054838;28;20017;-77
2021/11/02 10:55:24;;;;;;;9.03;4.97;;;10.60;98.40;;;;;;5053505;28;20100;-74
2021/11/02 10:58:19;;;;;;;8.73;4.43;;;10.50;98.20;;;;;;5055049;28;20029;-76
2021/11/02 11:00:48;;;;;;;8.37;4.20;;;10.50;98.20;;;;;;5052996;28;20381;-75
2021/11/02 11:03:16;;;;;;;9.47;5.33;;;10.50;98.10;;;;;;5053484;28;20497;-76
2021/11/02 11:05:55;;;;;;;9.70;4.27;;;10.50;97.70;;;;;;5053510;28;20028;-76
2021/11/02 11:08:31;;;;;;;8.73;5.30;;;10.50;97.80;;;;;;5053328;28;20025;-74
2021/11/02 11:11:25;;;;;;;7.73;4.67;;;10.50;97.40;;;;;;5054686;28;20366;-74
2021/11/02 11:13:56;;;;;;;10.45;5.35;;;10.50;97.40;;;;;;5053710;28;20040;-74
2021/11/02 11:16:24;;;;;;;7.60;4.77;;;10.50;97.30;;;;;;5054624;28;20354;-74
2021/11/02 11:18:56;;;;;;;8.03;4.70;;;10.50;97.20;;;;;;5054718;28;20476;-76
2021/11/02 11:21:25;;;;;;;8.60;4.00;;;10.60;97.50;;;;;;5053305;28;20406;-75
2021/11/02 11:24:06;;;;;;;8.10;3.80;;;10.60;97.60;;;;;;5054460;28;20459;-76
2021/11/02 11:26:32;;;;;;;8.45;3.95;;;10.60;97.60;;;;;;5034422;28;20065;-75
2021/11/02 11:29:00;;;;;;;7.43;4.43;;;10.60;97.40;;;;;;5034295;28;20040;-76
2021/11/02 11:31:27;;;;;;;9.43;4.40;;;10.70;97.40;;;;;;5033534;28;20025;-76
2021/11/02 11:34:03;;;;;;;10.63;4.47;;;10.70;97.50;;;;;;5032943;28;20115;-75
2021/11/02 11:36:33;;;;;;;6.60;4.00;;;10.80;97.50;;;;;;5035417;28;20037;-75
2021/11/02 11:39:02;;;;;;;8.18;3.75;;;10.80;97.40;;;;;;5035604;28;20025;-75
2021/11/02 11:41:32;;;;;;;7.83;4.20;;;10.90;97.50;;;;;;5053818;28;20115;-75
2021/11/02 11:44:02;;;;;;;8.43;4.57;;;10.90;97.40;;;;;;5052746;28;20021;-75
2021/11/02 11:46:29;;;;;;;6.63;3.45;;;10.90;97.30;;;;;;5052274;28;20024;-76
2021/11/02 11:48:58;;;;;;;7.57;4.33;;;10.90;97.20;;;;;;5053009;28;20070;-75
2021/11/02 11:51:27;;;;;;;8.27;4.13;;;10.90;97.20;;;;;;5052844;28;20025;-76
2021/11/02 11:53:58;;;;;;;6.88;4.28;;;10.90;97.10;;;;;;5051612;28;20025;-76
2021/11/02 11:56:31;;;;;;;7.35;3.90;;;10.90;97.00;;;;;;5051953;28;20104;-74
2021/11/02 11:58:57;;;;;;;9.60;4.75;;;10.90;97.00;;;;;;5053582;28;20025;-75
2021/11/02 12:01:35;;;;;;;9.50;4.63;;;11.00;96.80;;;;;;5054032;28;20388;-76
2021/11/02 12:04:16;;;;;;;10.15;4.93;;;11.00;96.80;;;;;;5053721;28;20342;-74
2021/11/02 12:06:48;;;;;;;12.70;4.90;;;11.00;96.40;;;;;;5051887;28;20017;-74
2021/11/02 12:09:20;;;;;;;9.20;5.30;;;11.00;96.60;;;;;;5053723;28;20025;-74
2021/11/02 12:11:47;;;;;;;7.10;4.28;;;11.10;96.60;;;;;;5052694;28;20353;-76
2021/11/02 12:14:24;;;;;;;7.25;4.00;;;11.10;96.60;;;;;;5052337;28;20028;-75
2021/11/02 12:16:51;;;;;;;8.37;4.90;;;11.10;96.50;;;;;;5053494;28;20020;-74
2021/11/02 12:19:38;;;;;;;8.35;4.82;;;11.10;96.40;;;;;;5053350;28;20025;-76
2021/11/02 12:22:12;;;;;;;7.43;4.57;;;11.10;96.30;;;;;;5053338;28;20368;-75
2021/11/02 12:24:39;;;;;;;7.65;4.30;;;11.10;96.30;;;;;;5052431;28;20083;-77
2021/11/02 12:27:15;;;;;;;10.75;4.78;;;11.10;96.30;;;;;;5052241;28;20068;-77
2021/11/02 12:29:43;;;;;;;9.25;5.60;;;11.10;96.30;;;;;;5052178;28;20021;-78
2021/11/02 12:32:11;;;;;;;6.75;4.07;;;11.10;96.00;;;;;;5053179;28;20083;-76
2021/11/02 12:34:50;;;;;;;7.60;4.18;;;11.20;96.20;;;;;;5053398;28;20021;-74
2021/11/02 12:37:17;;;;;;;6.32;3.53;;;11.20;96.20;;;;;;5052054;28;20435;-78
2021/11/02 12:39:43;;;;;;;5.20;3.05;;;11.20;96.00;;;;;;5051886;28;20037;-75
2021/11/02 12:42:10;;;;;;;5.75;3.72;;;11.30;95.80;;;;;;5051883;28;20083;-76
2021/11/02 12:44:38;;;;;;;5.22;3.63;;;11.20;95.90;;;;;;5053089;28;20107;-76
2021/11/02 12:47:07;;;;;;;9.85;3.97;;;11.20;96.10;;;;;;5052062;28;20143;-77
2021/11/02 12:50:11;;;;;;;8.00;4.13;;;11.30;96.00;;;;;;5051732;28;20759;-76
2021/11/02 12:52:39;;;;;;;7.30;3.33;;;11.40;96.20;;;;;;5031475;28;20045;-76
2021/11/02 12:55:11;;;;;;;9.82;3.08;;;11.50;96.20;;;;;;5031218;28;20462;-76
2021/11/02 12:57:54;;;;;;;6.75;3.47;;;11.50;96.10;;;;;;5022272;28;20036;-76
2021/11/02 13:00:26;;;;;;;5.45;3.60;;;11.60;96.10;;;;;;5033036;28;20052;-76
2021/11/02 13:03:04;;;;;;;6.07;3.70;;;11.60;96.00;;;;;;5033049;28;20477;-76
2021/11/02 13:05:31;;;;;;;7.15;3.80;;;11.70;96.00;;;;;;5044572;28;20032;-76
2021/11/02 13:08:08;;;;;;;6.38;3.65;;;11.80;96.10;;;;;;5055803;28;20540;-76
2021/11/02 13:10:35;;;;;;;7.60;4.05;;;11.90;96.20;;;;;;5057264;28;20356;-79
2021/11/02 13:13:20;;;;;;;8.43;3.78;;;12.00;96.40;;;;;;5039121;28;20025;-76
2021/11/02 13:15:54;;;;;;;6.18;3.75;;;12.40;96.70;;;;;;5055926;28;20334;-77
2021/11/02 13:18:39;;;;;;;6.07;3.67;;;12.80;97.00;;;;;;5055575;28;20020;-76
2021/11/02 13:24:03;;;;;;;4.35;3.03;;;13.10;95.30;;;;;;5056511;28;20108;-77
2021/11/02 13:26:29;;;;;;;6.88;3.67;;;13.20;94.70;;;;;;5056731;28;20056;-76
2021/11/02 13:29:15;;;;;;;6.63;3.42;;;13.20;94.40;;;;;;5056766;28;20056;-76
2021/11/02 13:31:48;;;;;;;5.28;3.20;;;13.20;94.00;;;;;;5055304;28;20060;-75
2021/11/02 13:34:33;;;;;;;6.38;3.67;;;13.10;93.90;;;;;;5055491;28;20048;-76
2021/11/02 13:37:04;;;;;;;7.50;4.18;;;13.00;93.30;;;;;;5056594;28;20028;-76
2021/11/02 13:39:30;;;;;;;6.55;3.95;;;12.90;92.90;;;;;;5055498;28;20056;-76
2021/11/02 13:41:56;;;;;;;6.38;3.90;;;12.80;92.70;;;;;;5056631;28;20060;-76
2021/11/02 13:44:24;;;;;;;8.00;4.15;;;12.70;92.80;;;;;;5055915;28;20025;-75
2021/11/02 13:46:56;;;;;;;9.10;4.25;;;12.60;92.90;;;;;;5056039;28;20094;-75
2021/11/02 13:49:22;;;;;;;7.43;4.40;;;12.50;92.80;;;;;;5056414;28;20021;-76
2021/11/02 13:51:50;;;;;;;7.13;4.25;;;12.40;92.70;;;;;;5021638;28;20029;-76
2021/11/02 13:54:16;;;;;;;9.00;3.97;;;12.20;92.60;;;;;;5056470;28;20027;-76
2021/11/02 13:56:44;;;;;;;9.50;3.80;;;12.20;92.70;;;;;;5055018;28;20120;-76
2021/11/02 13:59:12;;;;;;;6.97;3.80;;;12.00;92.60;;;;;;5054552;28;20029;-76
2021/11/02 14:01:50;;;;;;;5.85;3.45;;;12.00;92.80;;;;;;5055909;28;20032;-75
2021/11/02 14:04:35;;;;;;;5.47;2.78;;;11.90;92.90;;;;;;5067891;28;20513;-76
2021/11/02 14:07:16;;;;;;;9.30;3.80;;;11.80;93.00;;;;;;5035411;28;20045;-76
2021/11/02 14:09:57;;;;;;;6.32;3.60;;;11.70;93.00;;;;;;5055765;28;20061;-78
2021/11/02 14:12:25;;;;;;;7.22;3.15;;;11.70;93.10;;;;;;5053924;28;20017;-78
2021/11/02 14:15:09;;;;;;;8.35;3.88;;;11.60;93.30;;;;;;5054557;28;20017;-77
2021/11/02 14:17:39;;;;;;;7.28;3.55;;;11.60;93.40;;;;;;5052098;28;20029;-78
2021/11/02 14:20:06;;;;;;;5.50;3.65;;;11.50;93.50;;;;;;5037419;28;20116;-78
2021/11/02 14:22:48;;;;;;;7.70;3.78;;;11.50;93.70;;;;;;5037851;28;20424;-76
2021/11/02 14:25:22;;;;;;;8.68;3.50;;;11.50;93.60;;;;;;5053467;28;20040;-79
2021/11/02 14:27:51;;;;;;;4.00;1.90;;;11.50;93.70;;;;;;5053521;28;20110;-79
2021/11/02 14:30:29;;;;;;;3.10;1.27;;;11.40;93.40;;;;;;5055370;28;20056;-79
2021/11/02 14:32:55;;;;;;;2.22;0.80;;;11.20;93.10;;;;;;5038538;28;20116;-77
2021/11/02 14:35:44;;;;;;;1.33;0.50;;;11.00;92.70;;;;;;5055244;28;20080;-77
2021/11/02 14:38:12;;;;;;;1.53;0.50;;;11.00;92.70;;;;;;5055198;28;20027;-78
2021/11/02 14:40:49;;;;;;;1.00;0.50;;;10.90;92.70;;;;;;5054018;28;20021;-77
2021/11/02 14:43:15;;;;;;;1.60;0.73;;;10.80;92.90;;;;;;5052667;28;20108;-77
2021/11/02 14:45:44;;;;;;;3.53;0.70;;;10.70;93.00;;;;;;5054855;28;20553;-76
2021/11/02 14:48:25;;;;;;;1.77;0.70;;;10.70;93.20;;;;;;5053858;28;20556;-77
2021/11/02 14:50:54;;;;;;;2.00;1.03;;;10.60;93.30;;;;;;5055135;28;20366;-75
2021/11/02 14:53:33;;;;;;;1.67;0.90;;;10.50;93.50;;;;;;5055186;28;20017;-77
2021/11/02 14:56:06;;;;;;;1.87;1.07;;;10.50;93.70;;;;;;5053747;28;20028;-76
2021/11/02 14:58:41;;;;;;;3.43;1.00;;;10.50;93.90;;;;;;5055488;28;20385;-77
2021/11/02 15:01:26;;;;;;;3.37;0.87;;;10.40;94.20;;;;;;5053868;28;20027;-76
2021/11/02 15:04:01;;;;;;;2.77;0.80;;;10.40;94.30;;;;;;5054753;28;20155;-77
2021/11/02 15:06:39;;;;;;;2.30;0.90;;;10.40;94.40;;;;;;5053663;28;20025;-77
2021/11/02 15:09:16;;;;;;;3.10;0.70;;;10.40;94.50;;;;;;5053670;28;20028;-74
2021/11/02 15:11:47;;;;;;;1.50;0.77;;;10.40;94.50;;;;;;5053287;28;20170;-76
2021/11/02 15:14:18;;;;;;;2.00;0.90;;;10.40;94.50;;;;;;5054534;28;20021;-76
2021/11/02 15:16:52;;;;;;;1.33;0.70;;;10.40;94.60;;;;;;5052186;28;20029;-76
2021/11/02 15:19:20;;;;;;;1.50;0.80;;;10.40;94.60;;;;;;5054262;28;20029;-77
2021/11/02 15:21:55;;;;;;;1.50;0.80;;;10.40;94.60;;;;;;5054233;28;20473;-77
2021/11/02 15:24:42;;;;;;;2.70;1.10;;;10.40;94.70;;;;;;5052958;28;20492;-77
2021/11/02 15:27:11;;;;;;;2.00;0.90;;;10.40;94.70;;;;;;5053002;28;20052;-77
2021/11/02 15:29:41;;;;;;;3.70;1.00;;;10.40;94.70;;;;;;5052949;28;20384;-77
2021/11/02 15:32:10;;;;;;;3.73;1.43;;;10.40;94.80;;;;;;5052596;28;20025;-76
2021/11/02 15:34:37;;;;;;;4.80;1.40;;;10.40;94.90;;;;;;5053876;28;20465;-76
2021/11/02 15:37:08;;;;;;;2.63;1.13;;;10.30;94.90;;;;;;5052699;28;20112;-76
2021/11/02 15:39:34;;;;;;;3.27;1.60;;;10.40;95.10;;;;;;5052428;28;20029;-78
2021/11/02 15:42:02;;;;;;;5.70;2.10;;;10.40;95.10;;;;;;5053606;28;20064;-77
2021/11/02 15:44:29;;;;;;;4.87;2.33;;;10.40;95.10;;;;;;5035767;28;20031;-77
2021/11/02 15:46:55;;;;;;;6.17;2.70;;;10.30;95.10;;;;;;5053556;28;20031;-76
2021/11/02 15:49:24;;;;;;;5.47;3.10;;;10.30;95.20;;;;;;5052192;28;20504;-76
2021/11/02 15:51:57;;;;;;;5.13;3.27;;;10.30;95.30;;;;;;5035432;28;20025;-76
2021/11/02 15:54:26;;;;;;;5.37;3.60;;;10.30;95.30;;;;;;5053591;28;20025;-76
2021/11/02 15:56:55;;;;;;;5.80;3.83;;;10.30;95.40;;;;;;5053572;28;20067;-75
2021/11/02 15:59:25;;;;;;;7.43;4.03;;;10.20;95.50;;;;;;5046625;28;20040;-77
2021/11/02 16:01:53;;;;;;;6.60;4.10;;;10.30;95.50;;;;;;5053395;28;20139;-74
2021/11/02 16:04:25;;;;;;;7.77;5.17;;;10.20;95.50;;;;;;5053593;28;20033;-75
2021/11/02 16:06:56;;;;;;;7.37;4.33;;;10.20;95.60;;;;;;5052310;28;20074;-76
2021/11/02 16:09:24;;;;;;;8.43;4.80;;;10.20;95.60;;;;;;5053875;28;20473;-75
2021/11/02 16:11:49;;;;;;;6.40;3.93;;;10.10;95.60;;;;;;5053439;28;20093;-76
2021/11/02 16:14:18;;;;;;;7.13;4.27;;;10.10;95.70;;;;;;5052613;28;20029;-77
2021/11/02 16:16:47;;;;;;;9.27;4.20;;;10.00;95.70;;;;;;5053738;28;20099;-75
2021/11/02 16:19:13;;;;;;;8.33;4.30;;;10.00;95.80;;;;;;5052875;28;20037;-75
2021/11/02 16:21:39;;;;;;;5.97;3.90;;;10.10;95.90;;;;;;5052051;28;20044;-74
2021/11/02 16:24:10;;;;;;;7.73;4.57;;;10.10;95.90;;;;;;5051994;28;20037;-74
2021/11/02 16:26:39;;;;;;;5.57;3.30;;;10.00;95.90;;;;;;5051811;28;20036;-75
2021/11/02 16:29:16;;;;;;;6.07;3.50;;;10.10;96.00;;;;;;5052020;28;20031;-75
2021/11/02 16:31:45;;;;;;;4.90;2.80;;;10.10;96.00;;;;;;5053297;28;20032;-77
2021/11/02 16:34:23;;;;;;;4.63;2.30;;;10.10;96.00;;;;;;5053338;28;20021;-78
2021/11/02 16:36:53;;;;;;;3.50;2.00;;;10.00;95.90;;;;;;5052201;28;20040;-77
2021/11/02 16:39:20;;;;;;;3.80;1.93;;;10.10;95.90;;;;;;5051960;28;20041;-76
2021/11/02 16:41:54;;;;;;;3.27;1.47;;;10.00;95.90;;;;;;5052389;28;20033;-77
2021/11/02 16:44:32;;;;;;;4.63;1.70;;;10.00;95.90;;;;;;5053139;28;20443;-76
2021/11/02 16:47:06;;;;;;;4.70;1.47;;;9.90;95.80;;;;;;5052260;28;20082;-78
2021/11/02 16:49:32;;;;;;;4.10;1.57;;;9.90;95.80;;;;;;5053421;28;20440;-79
2021/11/02 16:52:04;;;;;;;3.80;1.23;;;10.00;95.90;;;;;;5052169;28;20022;-82
2021/11/02 16:54:44;;;;;;;4.80;1.43;;;9.90;95.80;;;;;;5052199;28;20468;-79
2021/11/02 16:57:22;;;;;;;3.23;1.23;;;9.90;95.80;;;;;;5052892;28;20388;-80
2021/11/02 17:00:01;;;;;;;3.43;1.30;;;9.70;95.70;;;;;;5052882;28;20423;-78
2021/11/02 17:02:33;;;;;;;5.50;1.37;;;9.80;95.70;;;;;;5051786;28;20365;-79
2021/11/02 17:05:20;;;;;;;4.00;1.33;;;9.80;95.60;;;;;;5053210;28;20420;-78
2021/11/02 17:07:46;;;;;;;3.40;1.00;;;9.70;95.60;;;;;;5051567;28;20040;-79
2021/11/02 17:10:22;;;;;;;2.70;1.17;;;9.70;95.70;;;;;;5051631;28;20029;-78
2021/11/02 17:12:51;;;;;;;4.27;1.50;;;9.60;95.70;;;;;;5051661;28;20026;-78
2021/11/02 17:15:30;;;;;;;5.17;1.60;;;9.50;95.70;;;;;;5052841;28;20423;-79
2021/11/02 17:17:57;;;;;;;6.27;2.20;;;9.50;95.80;;;;;;5052971;28;20027;-78
2021/11/02 17:20:24;;;;;;;4.83;2.03;;;9.50;95.80;;;;;;5053217;28;20500;-78
2021/11/02 17:22:50;;;;;;;5.13;1.70;;;9.50;95.90;;;;;;5035033;28;20040;-78
2021/11/02 17:25:18;;;;;;;3.83;1.40;;;9.40;95.80;;;;;;5051681;28;20033;-78
2021/11/02 17:27:49;;;;;;;4.70;1.70;;;9.40;95.80;;;;;;5052189;28;20114;-79
2021/11/02 17:30:27;;;;;;;3.27;1.47;;;9.40;95.80;;;;;;5052827;28;20049;-78
2021/11/02 17:32:56;;;;;;;3.53;1.60;;;9.40;95.90;;;;;;5051214;28;20029;-78
2021/11/02 17:35:22;;;;;;;4.27;1.67;;;9.40;95.90;;;;;;5051521;28;20441;-78
2021/11/02 17:37:52;;;;;;;6.27;2.00;;;9.30;95.80;;;;;;5052657;28;20037;-78
2021/11/02 17:40:18;;;;;;;4.43;2.17;;;9.30;95.80;;;;;;5051414;28;20070;-78
2021/11/02 17:42:46;;;;;;;8.00;2.23;;;9.30;95.90;;;;;;5051552;28;20025;-80
2021/11/02 17:45:15;;;;;;;6.73;2.10;;;9.20;95.80;;;;;;5052806;28;20025;-78
2021/11/02 17:47:43;;;;;;;5.37;2.50;;;9.20;95.90;;;;;;5052176;28;20019;-78
2021/11/02 17:50:09;;;;;;;4.80;2.40;;;9.20;95.90;;;;;;5051341;28;20381;-79
2021/11/02 17:52:36;;;;;;;6.83;2.47;;;9.10;95.90;;;;;;5054630;28;20499;-78
2021/11/02 17:55:07;;;;;;;4.77;2.40;;;9.10;96.00;;;;;;5053574;28;20041;-78
2021/11/02 17:57:40;;;;;;;5.00;2.60;;;9.00;96.10;;;;;;5047892;28;20021;-77
2021/11/02 18:00:07;;;;;;;6.60;1.90;;;9.00;96.10;;;;;;5046709;28;20036;-76
2021/11/02 18:02:34;;;;;;;5.77;2.17;;;9.00;96.20;;;;;;5039745;28;20024;-78
2021/11/02 18:05:00;;;;;;;5.63;2.60;;;9.00;96.30;;;;;;5056559;28;20535;-78
2021/11/02 18:07:27;;;;;;;4.53;2.30;;;9.00;96.40;;;;;;5054468;28;20024;-80